PWSweather.com
Personal Weather Stations
Station Observations
ALMOSTER
Urb. Mas Carreras, AlmosterES 43393

Urb. Mas CarrerasAlmosterES 43393

Lat: 41.1908333333, Lon: 1.1086111111

Elevation: 836.6

Station Type: Davis Vantage Pro 2

http://www.meteoalmoster.net

High Low Average
Temperature 87.6°F30.9°F 70.3°F21.3°F 77.7°F25.4°F
Dew Point 67.6°F19.8°F 54.9°F12.7°F 60.6°F15.9°F
Winds 22.0 mph -35.4 mph - Calm Calm 10.5 mph 16.9 mph
Wind Gusts 42.0 mph67.6 mph -- 20.0 mph32.2 mph
Humidity 87% 34% 58%
Pressure 30.00 in1015.90 in 29.82 in1009.80 in -
Precipitation 0.02 in0.50 in - -
Hour Temp Dew Point Humidity Winds Wind Gusts Pressure Precip Precip Rate Daily Precip Total
12:00 AM 71.4°F21.9°C 63.9°F17.7°C 77% Calm Calm -- 29.91 in1012.9 mb 0.00 in0.0 mm 0.00 in0.0 mm 0.00 in0.0 mm
12:30 AM 71.1°F21.7°C 65.7°F18.7°C 83% Calm Calm -- 29.89 in1012.2 mb 0.00 in0.0 mm 0.00 in0.0 mm 0.00 in0.0 mm
01:00 AM 71.4°F21.9°C 66.7°F19.3°C 85% Calm Calm -- 29.88 in1011.9 mb 0.00 in0.0 mm 0.00 in0.0 mm 0.00 in0.0 mm
01:30 AM 70.9°F21.6°C 65.7°F18.7°C 84% Calm Calm 4.0 mph6.4 kmh 29.88 in1011.9 mb 0.00 in0.0 mm 0.00 in0.0 mm 0.00 in0.0 mm
02:00 AM 70.9°F21.6°C 66.7°F19.3°C 87% Calm Calm -- 29.87 in1011.5 mb 0.00 in0.0 mm 0.00 in0.0 mm 0.00 in0.0 mm
02:30 AM 71.6°F22.0°C 67.5°F19.7°C 87% Calm Calm 3.0 mph4.8 kmh 29.86 in1011.2 mb 0.00 in0.0 mm 0.00 in0.0 mm 0.00 in0.0 mm
03:00 AM 72.3°F22.4°C 67.5°F19.7°C 85% Calm Calm -- 29.87 in1011.5 mb 0.00 in0.0 mm 0.00 in0.0 mm 0.00 in0.0 mm
03:30 AM 72.1°F22.3°C 67.6°F19.8°C 86% Calm Calm -- 29.85 in1010.8 mb 0.00 in0.0 mm 0.00 in0.0 mm 0.00 in0.0 mm
04:00 AM 72.0°F22.2°C 67.6°F19.8°C 86% Calm Calm -- 29.85 in1010.8 mb 0.00 in0.0 mm 0.00 in0.0 mm 0.00 in0.0 mm
04:30 AM 72.9°F22.7°C 64.9°F18.3°C 76% 4.0 mph WNW6.4 kmh WNW 12.0 mph19.3 kmh 29.85 in1010.8 mb 0.00 in0.0 mm 0.00 in0.0 mm 0.00 in0.0 mm
05:00 AM 71.1°F21.7°C 62.2°F16.8°C 74% 9.0 mph NW14.5 kmh NW 14.0 mph22.5 kmh 29.85 in1010.8 mb 0.00 in0.0 mm 0.00 in0.0 mm 0.00 in0.0 mm
05:30 AM 70.9°F21.6°C 62.4°F16.9°C 75% 8.0 mph NW12.9 kmh NW 13.0 mph20.9 kmh 29.85 in1010.8 mb 0.00 in0.0 mm 0.00 in0.0 mm 0.00 in0.0 mm
06:00 AM 71.4°F21.9°C 62.6°F17.0°C 74% 3.0 mph NW4.8 kmh NW 10.0 mph16.1 kmh 29.84 in1010.5 mb 0.00 in0.0 mm 0.00 in0.0 mm 0.00 in0.0 mm
06:30 AM 71.6°F22.0°C 62.1°F16.7°C 72% 10.0 mph NW16.1 kmh NW 17.0 mph27.4 kmh 29.85 in1010.8 mb 0.00 in0.0 mm 0.00 in0.0 mm 0.00 in0.0 mm
07:00 AM 70.3°F21.3°C 61.3°F16.3°C 73% 15.0 mph NW24.1 kmh NW 25.0 mph40.2 kmh 29.85 in1010.8 mb 0.00 in0.0 mm 0.00 in0.0 mm 0.00 in0.0 mm
07:30 AM 71.6°F22.0°C 60.8°F16.0°C 69% 14.0 mph WNW22.5 kmh WNW 26.0 mph41.8 kmh 29.86 in1011.2 mb 0.00 in0.0 mm 0.00 in0.0 mm 0.00 in0.0 mm
08:00 AM 72.0°F22.2°C 60.8°F16.0°C 68% 17.0 mph NW27.4 kmh NW 36.0 mph57.9 kmh 29.84 in1010.5 mb 0.00 in0.0 mm 0.00 in0.0 mm 0.00 in0.0 mm
08:30 AM 73.2°F22.9°C 61.2°F16.2°C 66% 21.0 mph WNW33.8 kmh WNW 34.0 mph54.7 kmh 29.84 in1010.5 mb 0.00 in0.0 mm 0.00 in0.0 mm 0.00 in0.0 mm
09:00 AM 74.1°F23.4°C 61.5°F16.4°C 65% 15.0 mph NW24.1 kmh NW 29.0 mph46.7 kmh 29.83 in1010.2 mb 0.00 in0.0 mm 0.00 in0.0 mm 0.00 in0.0 mm
09:30 AM 73.9°F23.3°C 61.0°F16.1°C 64% 14.0 mph NW22.5 kmh NW 30.0 mph48.3 kmh 29.83 in1010.2 mb 0.00 in0.0 mm 0.00 in0.0 mm 0.00 in0.0 mm
10:00 AM 74.1°F23.4°C 60.3°F15.7°C 62% 22.0 mph NW35.4 kmh NW 36.0 mph57.9 kmh 29.82 in1009.8 mb 0.01 in0.3 mm 0.02 in0.5 mm 0.01 in0.3 mm
10:30 AM 75.7°F24.3°C 61.0°F16.1°C 60% 18.0 mph NW29.0 kmh NW 42.0 mph67.6 kmh 29.82 in1009.8 mb 0.01 in0.3 mm 0.00 in0.0 mm 0.01 in0.3 mm
11:00 AM 77.7°F25.4°C 61.9°F16.6°C 58% 18.0 mph NW29.0 kmh NW 37.0 mph59.5 kmh 29.85 in1010.8 mb 0.00 in0.0 mm 0.00 in0.0 mm 0.01 in0.3 mm
11:30 AM 78.6°F25.9°C 61.7°F16.5°C 56% 14.0 mph NW22.5 kmh NW 26.0 mph41.8 kmh 29.88 in1011.9 mb 0.00 in0.0 mm 0.00 in0.0 mm 0.01 in0.3 mm
12:00 PM 80.1°F26.7°C 61.9°F16.6°C 54% 10.0 mph NW16.1 kmh NW 20.0 mph32.2 kmh 29.90 in1012.5 mb 0.00 in0.0 mm 0.00 in0.0 mm 0.01 in0.3 mm
12:30 PM 81.3°F27.4°C 62.6°F17.0°C 53% 10.0 mph NW16.1 kmh NW 19.0 mph30.6 kmh 29.89 in1012.2 mb 0.00 in0.0 mm 0.00 in0.0 mm 0.01 in0.3 mm
01:00 PM 84.0°F28.9°C 59.7°F15.4°C 44% 11.0 mph NW17.7 kmh NW 20.0 mph32.2 kmh 29.89 in1012.2 mb 0.00 in0.0 mm 0.00 in0.0 mm 0.01 in0.3 mm
01:30 PM 85.6°F29.8°C 59.9°F15.5°C 42% 8.0 mph NNW12.9 kmh NNW 22.0 mph35.4 kmh 29.90 in1012.5 mb 0.00 in0.0 mm 0.00 in0.0 mm 0.01 in0.3 mm
02:00 PM 85.6°F29.8°C 56.5°F13.6°C 37% 9.0 mph WNW14.5 kmh WNW 19.0 mph30.6 kmh 29.90 in1012.5 mb 0.00 in0.0 mm 0.00 in0.0 mm 0.01 in0.3 mm
02:30 PM 85.8°F29.9°C 58.8°F14.9°C 40% 10.0 mph W16.1 kmh W 18.0 mph29.0 kmh 29.91 in1012.9 mb 0.00 in0.0 mm 0.00 in0.0 mm 0.01 in0.3 mm
03:00 PM 85.6°F29.8°C 59.9°F15.5°C 42% 11.0 mph WNW17.7 kmh WNW 24.0 mph38.6 kmh 29.90 in1012.5 mb 0.00 in0.0 mm 0.00 in0.0 mm 0.01 in0.3 mm
03:30 PM 87.4°F30.8°C 59.4°F15.2°C 39% 13.0 mph W20.9 kmh W 25.0 mph40.2 kmh 29.90 in1012.5 mb 0.00 in0.0 mm 0.00 in0.0 mm 0.01 in0.3 mm
04:00 PM 87.3°F30.7°C 57.7°F14.3°C 37% 11.0 mph W17.7 kmh W 24.0 mph38.6 kmh 29.91 in1012.9 mb 0.00 in0.0 mm 0.00 in0.0 mm 0.01 in0.3 mm
04:30 PM 87.6°F30.9°C 57.4°F14.1°C 36% 11.0 mph W17.7 kmh W 19.0 mph30.6 kmh 29.92 in1013.2 mb 0.00 in0.0 mm 0.00 in0.0 mm 0.01 in0.3 mm
05:00 PM 86.7°F30.4°C 56.7°F13.7°C 36% 11.0 mph WNW17.7 kmh WNW 21.0 mph33.8 kmh 29.92 in1013.2 mb 0.00 in0.0 mm 0.00 in0.0 mm 0.01 in0.3 mm
05:30 PM 86.5°F30.3°C 55.8°F13.2°C 35% 10.0 mph WNW16.1 kmh WNW 26.0 mph41.8 kmh 29.92 in1013.2 mb 0.00 in0.0 mm 0.00 in0.0 mm 0.01 in0.3 mm
06:00 PM 86.5°F30.3°C 54.9°F12.7°C 34% 12.0 mph WNW19.3 kmh WNW 25.0 mph40.2 kmh 29.92 in1013.2 mb 0.00 in0.0 mm 0.00 in0.0 mm 0.01 in0.3 mm
06:30 PM 85.6°F29.8°C 56.5°F13.6°C 37% 12.0 mph W19.3 kmh W 23.0 mph37.0 kmh 29.92 in1013.2 mb 0.00 in0.0 mm 0.00 in0.0 mm 0.01 in0.3 mm
07:00 PM 84.2°F29.0°C 55.0°F12.8°C 37% 17.0 mph WNW27.4 kmh WNW 28.0 mph45.1 kmh 29.93 in1013.5 mb 0.00 in0.0 mm 0.00 in0.0 mm 0.01 in0.3 mm
07:30 PM 83.1°F28.4°C 56.3°F13.5°C 40% 13.0 mph W20.9 kmh W 25.0 mph40.2 kmh 29.94 in1013.9 mb 0.00 in0.0 mm 0.00 in0.0 mm 0.01 in0.3 mm
08:00 PM 81.7°F27.6°C 57.0°F13.9°C 43% 13.0 mph WNW20.9 kmh WNW 21.0 mph33.8 kmh 29.95 in1014.2 mb 0.00 in0.0 mm 0.00 in0.0 mm 0.01 in0.3 mm
08:30 PM 80.4°F26.9°C 57.2°F14.0°C 45% 16.0 mph WNW25.7 kmh WNW 28.0 mph45.1 kmh 29.96 in1014.6 mb 0.00 in0.0 mm 0.00 in0.0 mm 0.01 in0.3 mm
09:00 PM 79.5°F26.4°C 56.3°F13.5°C 45% 13.0 mph WNW20.9 kmh WNW 23.0 mph37.0 kmh 29.97 in1014.9 mb 0.00 in0.0 mm 0.00 in0.0 mm 0.01 in0.3 mm
09:30 PM 78.4°F25.8°C 56.5°F13.6°C 47% 14.0 mph WNW22.5 kmh WNW 23.0 mph37.0 kmh 29.99 in1015.6 mb 0.00 in0.0 mm 0.00 in0.0 mm 0.01 in0.3 mm
10:00 PM 77.4°F25.2°C 56.7°F13.7°C 49% 14.0 mph NW22.5 kmh NW 25.0 mph40.2 kmh 29.99 in1015.6 mb 0.00 in0.0 mm 0.00 in0.0 mm 0.01 in0.3 mm
10:30 PM 77.2°F25.1°C 56.5°F13.6°C 49% 18.0 mph NW29.0 kmh NW 30.0 mph48.3 kmh 30.00 in1015.9 mb 0.00 in0.0 mm 0.00 in0.0 mm 0.01 in0.3 mm
11:00 PM 75.9°F24.4°C 56.5°F13.6°C 51% 19.0 mph NW30.6 kmh NW 30.0 mph48.3 kmh 30.00 in1015.9 mb 0.00 in0.0 mm 0.00 in0.0 mm 0.01 in0.3 mm
11:30 PM 75.6°F24.2°C 56.7°F13.7°C 52% 15.0 mph NW24.1 kmh NW 26.0 mph41.8 kmh 30.00 in1015.9 mb 0.00 in0.0 mm 0.00 in0.0 mm 0.01 in0.3 mm